Terminal Aerodrome Forecast
Issued by NWS

Home | Current Version | Previous Version | Text Only | Print | Product List | Glossary On
Versions: 1 2 3 4 5 6 7 8 9 10 11 12 13 14 15 16 17 18 19 20 21 22
000
FTUS44 KOHX 311100
TAFCKV
TAF
KCKV 311120Z 3112/0112 35006KT P6SM -SHRA OVC050
     FM311400 33010KT 6SM -SHRA OVC020
     FM311700 33015G28KT P6SM VCSH OVC015
     FM010000 32013G26KT P6SM BKN050=

USA.gov is the U.S. government's official web portal to all federal, state and local government web resources and services.